createdAt,value
2023-06-15T00:01:56.379Z,14.94
2023-06-15T00:04:25.135Z,14.85
2023-06-15T00:06:55.692Z,14.83
2023-06-15T00:09:24.619Z,14.81
2023-06-15T00:11:53.376Z,14.84
2023-06-15T00:14:22.278Z,14.83
2023-06-15T00:16:53.801Z,14.84
2023-06-15T00:19:22.906Z,14.81
2023-06-15T00:21:54.876Z,14.74
2023-06-15T00:24:25.247Z,14.72
2023-06-15T00:26:54.038Z,14.74
2023-06-15T00:29:22.801Z,14.64
2023-06-15T00:31:51.598Z,14.56
2023-06-15T00:34:20.511Z,14.37
2023-06-15T00:36:51.457Z,14.32
2023-06-15T00:39:20.792Z,14.35
2023-06-15T00:41:51.062Z,14.44
2023-06-15T00:44:19.874Z,14.49
2023-06-15T00:46:49.625Z,14.48
2023-06-15T00:49:18.751Z,14.51
2023-06-15T00:51:47.836Z,14.52
2023-06-15T00:54:23.707Z,14.55
2023-06-15T00:56:55.108Z,14.60
2023-06-15T00:59:24.447Z,14.56
2023-06-15T01:01:56.253Z,14.42
2023-06-15T01:04:26.953Z,14.42
2023-06-15T01:07:03.478Z,14.44
2023-06-15T01:09:38.515Z,14.50
2023-06-15T01:12:13.903Z,14.56
2023-06-15T01:14:43.694Z,14.54
2023-06-15T01:17:16.941Z,14.60
2023-06-15T01:19:58.934Z,14.64
2023-06-15T01:22:46.835Z,14.56
2023-06-15T01:25:30.922Z,14.53
2023-06-15T01:28:04.380Z,14.74
2023-06-15T01:30:42.657Z,14.95
2023-06-15T01:33:12.815Z,15.26
2023-06-15T01:35:41.935Z,15.56
2023-06-15T01:38:15.233Z,15.75
2023-06-15T01:40:50.611Z,15.93
2023-06-15T01:43:25.150Z,16.00
2023-06-15T01:45:57.820Z,16.12
2023-06-15T01:48:28.257Z,16.23
2023-06-15T01:50:58.465Z,16.42
2023-06-15T01:53:27.443Z,16.61
2023-06-15T01:55:57.925Z,16.87
2023-06-15T01:58:28.169Z,17.01
2023-06-15T02:00:57.112Z,17.04
2023-06-15T02:03:25.972Z,17.15
2023-06-15T02:05:54.758Z,17.14
2023-06-15T02:08:23.537Z,17.34
2023-06-15T02:10:52.645Z,17.44
2023-06-15T02:13:21.593Z,17.55
2023-06-15T02:15:55.720Z,17.71
2023-06-15T02:18:34.749Z,17.69
2023-06-15T02:21:03.394Z,17.58
2023-06-15T02:23:33.649Z,17.56
2023-06-15T02:26:02.535Z,17.66
2023-06-15T02:28:33.906Z,17.73
2023-06-15T02:31:04.237Z,17.85
2023-06-15T02:33:34.894Z,17.84
2023-06-15T02:36:07.399Z,17.89
2023-06-15T02:38:38.561Z,17.91
2023-06-15T02:41:07.582Z,18.00
2023-06-15T02:43:36.533Z,17.93
2023-06-15T02:46:07.891Z,17.93
2023-06-15T02:48:36.707Z,17.88
2023-06-15T02:51:05.788Z,17.93
2023-06-15T02:53:34.582Z,18.05
2023-06-15T02:56:06.348Z,18.23
2023-06-15T02:58:38.572Z,18.39
2023-06-15T03:01:23.025Z,18.65
2023-06-15T03:03:55.763Z,18.81
2023-06-15T03:06:27.247Z,18.82
2023-06-15T03:08:58.710Z,18.77
2023-06-15T03:11:31.191Z,18.79
2023-06-15T03:14:01.130Z,19.01
2023-06-15T03:16:40.635Z,19.33
2023-06-15T03:19:10.756Z,19.44
2023-06-15T03:21:40.860Z,19.32
2023-06-15T03:24:10.687Z,19.33
2023-06-15T03:26:43.348Z,19.55
2023-06-15T03:29:14.608Z,19.78
2023-06-15T03:31:47.604Z,19.79
2023-06-15T03:34:16.962Z,19.86
2023-06-15T03:36:45.975Z,19.86
2023-06-15T03:39:15.927Z,19.61
2023-06-15T03:41:45.206Z,19.51
2023-06-15T03:44:15.204Z,19.19
2023-06-15T03:46:48.172Z,19.22
2023-06-15T03:49:17.456Z,19.25
2023-06-15T03:51:46.736Z,19.19
2023-06-15T03:54:15.805Z,19.19
2023-06-15T03:56:45.263Z,19.11
2023-06-15T03:59:14.240Z,19.19
2023-06-15T04:01:45.827Z,19.29
2023-06-15T04:04:16.441Z,19.30
2023-06-15T04:06:48.050Z,19.45
2023-06-15T04:09:18.396Z,19.49
2023-06-15T04:11:47.622Z,19.54
2023-06-15T04:14:16.586Z,19.59
2023-06-15T04:16:46.902Z,19.64
2023-06-15T04:19:16.450Z,19.78
2023-06-15T04:21:45.266Z,19.74
2023-06-15T04:24:14.562Z,19.84
2023-06-15T04:26:45.371Z,19.87
2023-06-15T04:29:19.573Z,19.92
2023-06-15T04:31:56.099Z,19.96
2023-06-15T04:34:27.610Z,20.09
2023-06-15T04:36:57.411Z,20.21
2023-06-15T04:39:27.023Z,20.29
2023-06-15T04:42:00.545Z,20.42
2023-06-15T04:44:29.833Z,20.52
2023-06-15T04:47:01.709Z,20.65
2023-06-15T04:49:31.952Z,20.72
2023-06-15T04:52:02.034Z,20.83
2023-06-15T04:54:32.033Z,20.94
2023-06-15T04:57:03.368Z,21.08
2023-06-15T04:59:32.632Z,21.22
2023-06-15T05:02:03.268Z,21.28
2023-06-15T05:04:37.713Z,21.36
2023-06-15T05:07:07.801Z,21.40
2023-06-15T05:09:43.401Z,21.50
2023-06-15T05:12:16.679Z,21.63
2023-06-15T05:14:46.311Z,21.72
2023-06-15T05:17:16.833Z,21.80
2023-06-15T05:19:46.121Z,21.90
2023-06-15T05:22:14.956Z,22.04
2023-06-15T05:24:43.884Z,22.07
2023-06-15T05:27:12.905Z,22.11
2023-06-15T05:29:47.309Z,22.18
2023-06-15T05:32:18.136Z,22.22
2023-06-15T05:34:48.407Z,22.33
2023-06-15T05:37:17.232Z,22.40
2023-06-15T05:39:47.431Z,22.43
2023-06-15T05:42:17.681Z,22.54
2023-06-15T05:44:50.532Z,22.62
2023-06-15T05:47:21.044Z,22.67
2023-06-15T05:49:50.973Z,22.78
2023-06-15T05:52:20.446Z,22.83
2023-06-15T05:54:52.307Z,22.87
2023-06-15T05:57:21.369Z,22.94
2023-06-15T05:59:50.384Z,22.90
2023-06-15T06:02:21.225Z,22.96
2023-06-15T06:04:53.048Z,22.99
2023-06-15T06:07:21.840Z,23.08
2023-06-15T06:09:52.851Z,23.10
2023-06-15T06:12:22.104Z,23.09
2023-06-15T06:21:48.106Z,23.51
2023-06-15T06:24:23.010Z,23.55
2023-06-15T06:26:52.985Z,23.51
2023-06-15T06:29:21.843Z,23.44
2023-06-15T06:31:50.659Z,23.45
2023-06-15T06:34:19.542Z,23.49
2023-06-15T06:36:48.426Z,23.70
2023-06-15T06:39:19.046Z,23.76
2023-06-15T06:41:49.157Z,23.94
2023-06-15T06:44:20.009Z,23.96
2023-06-15T06:46:48.877Z,24.16
2023-06-15T06:49:17.691Z,24.09
2023-06-15T06:51:46.646Z,23.98
2023-06-15T06:54:15.518Z,23.96
2023-06-15T06:56:46.566Z,24.03
2023-06-15T06:59:32.092Z,24.05
2023-06-15T07:02:35.464Z,24.08
2023-06-15T07:05:04.686Z,24.12
2023-06-15T07:07:34.982Z,24.22
2023-06-15T07:10:03.967Z,24.15
2023-06-15T07:12:34.950Z,24.19
2023-06-15T07:15:06.982Z,24.22
2023-06-15T07:17:36.308Z,24.18
2023-06-15T07:20:09.512Z,24.25
2023-06-15T07:22:38.934Z,24.18
2023-06-15T07:25:08.812Z,24.16
2023-06-15T07:27:41.972Z,24.20
2023-06-15T07:30:14.848Z,24.20
2023-06-15T07:32:44.477Z,24.40
2023-06-15T07:35:14.907Z,24.43
2023-06-15T07:37:45.203Z,24.47
2023-06-15T07:40:17.128Z,24.46
2023-06-15T07:42:47.722Z,24.52
2023-06-15T07:45:16.735Z,24.56
2023-06-15T07:47:45.772Z,24.48
2023-06-15T07:50:14.799Z,24.46
2023-06-15T07:52:43.864Z,24.44
2023-06-15T07:55:12.921Z,24.54
2023-06-15T07:57:41.727Z,24.60
2023-06-15T08:00:13.850Z,24.67
2023-06-15T08:02:43.050Z,24.78
2023-06-15T08:05:13.087Z,24.84
2023-06-15T08:07:42.178Z,24.84
2023-06-15T08:10:12.441Z,24.82
2023-06-15T08:12:41.286Z,24.84
2023-06-15T08:15:12.530Z,24.80
2023-06-15T08:17:41.905Z,24.80
2023-06-15T08:20:12.151Z,24.83
2023-06-15T08:22:41.537Z,24.93
2023-06-15T08:25:13.679Z,24.95
2023-06-15T08:27:43.340Z,24.97
2023-06-15T08:30:15.386Z,25.04
2023-06-15T08:32:46.417Z,25.10
2023-06-15T08:35:15.641Z,25.02
2023-06-15T08:37:44.808Z,25.11
2023-06-15T08:40:15.181Z,25.22
2023-06-15T08:42:44.709Z,25.27
2023-06-15T08:45:15.318Z,25.23
2023-06-15T08:47:45.701Z,25.17
2023-06-15T08:50:14.671Z,25.08
2023-06-15T08:52:46.561Z,25.25
2023-06-15T08:55:17.397Z,25.32
2023-06-15T08:57:46.796Z,25.45
2023-06-15T09:00:19.061Z,25.52
2023-06-15T09:02:48.964Z,25.54
2023-06-15T09:05:18.020Z,25.56
2023-06-15T09:07:46.800Z,25.24
2023-06-15T09:10:17.891Z,25.22
2023-06-15T09:12:50.245Z,25.37
2023-06-15T09:15:23.146Z,25.40
2023-06-15T09:17:53.565Z,25.63
2023-06-15T09:20:25.889Z,25.69
2023-06-15T09:22:59.701Z,25.82
2023-06-15T09:25:29.209Z,25.92
2023-06-15T09:28:00.650Z,25.93
2023-06-15T09:30:35.592Z,26.03
2023-06-15T09:33:14.453Z,26.21
2023-06-15T09:35:59.673Z,26.33
2023-06-15T09:38:33.587Z,26.50
2023-06-15T09:41:05.499Z,26.48
2023-06-15T09:43:41.477Z,26.61
2023-06-15T09:46:14.929Z,26.51
2023-06-15T09:48:48.106Z,26.54
2023-06-15T09:51:18.431Z,26.42
2023-06-15T09:53:50.022Z,26.37
2023-06-15T09:56:28.627Z,26.35
2023-06-15T09:59:03.930Z,26.35
2023-06-15T10:01:38.395Z,26.47
2023-06-15T10:04:09.396Z,26.51
2023-06-15T10:06:45.104Z,26.54
2023-06-15T10:09:19.026Z,26.54
2023-06-15T10:11:51.764Z,26.58
2023-06-15T10:14:31.088Z,26.61
2023-06-15T10:17:05.253Z,26.72
2023-06-15T10:19:40.163Z,26.63
2023-06-15T10:22:18.781Z,26.68
2023-06-15T10:24:48.689Z,26.73
2023-06-15T10:27:19.165Z,26.92
2023-06-15T10:30:03.731Z,27.14
2023-06-15T10:32:46.997Z,27.34
2023-06-15T10:35:26.396Z,27.40
2023-06-15T10:38:09.435Z,27.49
2023-06-15T10:40:48.814Z,27.36
2023-06-15T10:43:22.331Z,27.23
2023-06-15T10:45:51.328Z,27.44
2023-06-15T10:48:27.489Z,27.34
2023-06-15T10:51:05.926Z,27.33
2023-06-15T10:53:40.875Z,27.39
2023-06-15T10:56:16.054Z,27.40
2023-06-15T10:58:56.894Z,27.59
2023-06-15T11:01:28.346Z,27.51
2023-06-15T11:03:59.695Z,27.68
2023-06-15T11:06:34.740Z,27.42
2023-06-15T11:09:06.346Z,27.60
2023-06-15T11:11:38.003Z,27.66
2023-06-15T11:14:08.786Z,27.79
2023-06-15T11:16:39.655Z,27.88
2023-06-15T11:19:42.768Z,27.72
2023-06-15T11:22:13.264Z,27.60
2023-06-15T11:24:43.364Z,27.47
2023-06-15T11:27:13.796Z,27.50
2023-06-15T11:29:44.126Z,27.65
2023-06-15T11:32:13.318Z,27.80
2023-06-15T11:34:43.512Z,27.87
2023-06-15T11:37:15.114Z,27.88
2023-06-15T11:39:47.881Z,27.93
2023-06-15T11:42:16.943Z,28.10
2023-06-15T11:44:46.910Z,28.16
2023-06-15T11:47:15.714Z,28.00
2023-06-15T11:49:48.225Z,27.95
2023-06-15T11:52:17.673Z,27.98
2023-06-15T11:54:52.348Z,28.16
2023-06-15T11:57:22.846Z,28.33
2023-06-15T11:59:53.025Z,28.62
2023-06-15T12:02:22.625Z,28.76
2023-06-15T12:04:58.803Z,28.94
2023-06-15T12:07:38.135Z,28.96
2023-06-15T12:10:12.704Z,29.04
2023-06-15T12:12:42.874Z,28.93
2023-06-15T12:15:11.854Z,28.86
2023-06-15T12:17:40.793Z,28.82
2023-06-15T12:20:12.561Z,28.58
2023-06-15T12:22:45.981Z,28.79
2023-06-15T12:25:15.716Z,28.61
2023-06-15T12:27:47.105Z,28.56
2023-06-15T12:30:19.399Z,28.53
2023-06-15T12:32:51.384Z,28.63
2023-06-15T12:35:29.602Z,28.72
2023-06-15T12:37:59.038Z,28.82
2023-06-15T12:40:28.368Z,28.93
2023-06-15T12:43:05.661Z,28.73
2023-06-15T12:45:35.895Z,28.91
2023-06-15T12:48:06.440Z,28.95
2023-06-15T12:50:36.765Z,28.79
2023-06-15T12:53:06.320Z,28.56
2023-06-15T12:55:35.630Z,28.37
2023-06-15T12:58:05.490Z,28.42
2023-06-15T13:00:34.508Z,28.35
2023-06-15T13:03:07.037Z,28.54
2023-06-15T13:05:38.737Z,28.51
2023-06-15T13:08:07.754Z,28.51
2023-06-15T13:10:37.801Z,28.52
2023-06-15T13:13:07.601Z,28.51
2023-06-15T13:15:38.854Z,28.63
2023-06-15T13:18:09.549Z,28.57
2023-06-15T13:20:40.511Z,28.26
2023-06-15T13:23:12.667Z,28.24
2023-06-15T13:25:42.093Z,28.33
2023-06-15T13:28:11.210Z,28.35
2023-06-15T13:30:40.063Z,28.23
2023-06-15T13:33:09.725Z,28.28
2023-06-15T13:35:40.864Z,28.21
2023-06-15T13:38:09.762Z,28.21
2023-06-15T13:40:40.533Z,28.32
2023-06-15T13:43:11.586Z,28.23
2023-06-15T13:45:41.397Z,28.15
2023-06-15T13:48:10.658Z,28.09
2023-06-15T13:50:47.960Z,28.04
2023-06-15T13:53:17.317Z,28.08
2023-06-15T13:55:47.827Z,28.17
2023-06-15T13:58:17.186Z,28.03
2023-06-15T14:00:46.211Z,28.15
2023-06-15T14:03:16.389Z,28.19
2023-06-15T14:05:46.904Z,28.04
2023-06-15T14:08:15.691Z,28.18
2023-06-15T14:10:44.978Z,28.36
2023-06-15T14:13:13.807Z,28.46
2023-06-15T14:15:42.621Z,28.87
2023-06-15T14:18:11.800Z,28.98
2023-06-15T14:20:40.728Z,29.17
2023-06-15T14:23:11.468Z,29.28
2023-06-15T14:25:40.761Z,29.42
2023-06-15T14:28:09.994Z,29.59
2023-06-15T14:30:38.821Z,29.36
2023-06-15T14:33:07.670Z,29.30
2023-06-15T14:35:38.721Z,29.51
2023-06-15T14:38:07.654Z,29.79
2023-06-15T14:40:38.498Z,29.89
2023-06-15T14:43:07.649Z,30.03
2023-06-15T14:45:36.406Z,30.24
2023-06-15T14:48:05.577Z,30.28
2023-06-15T14:50:34.435Z,30.56
2023-06-15T14:53:03.761Z,30.50
2023-06-15T14:55:32.832Z,30.63
2023-06-15T14:58:03.312Z,30.60
2023-06-15T15:00:32.166Z,30.37
2023-06-15T15:03:01.080Z,30.48
2023-06-15T15:05:30.071Z,30.40
2023-06-15T15:07:58.923Z,30.64
2023-06-15T15:10:28.986Z,30.62
2023-06-15T15:12:58.052Z,30.74
2023-06-15T15:15:30.678Z,30.64
2023-06-15T15:17:59.844Z,30.38
2023-06-15T15:20:28.899Z,30.72
2023-06-15T15:22:58.087Z,30.68
2023-06-15T15:25:27.172Z,30.79
2023-06-15T15:27:56.081Z,30.82
2023-06-15T15:30:25.595Z,30.81
2023-06-15T15:32:59.896Z,30.83
2023-06-15T15:35:29.242Z,30.51
2023-06-15T15:37:58.101Z,30.31
2023-06-15T15:40:26.929Z,30.54
2023-06-15T15:42:55.675Z,30.51
2023-06-15T15:45:24.740Z,30.31
2023-06-15T15:47:53.620Z,30.19
2023-06-15T15:50:24.722Z,30.53
2023-06-15T15:53:00.759Z,30.79
2023-06-15T15:55:31.428Z,30.49
2023-06-15T15:58:00.542Z,30.77
2023-06-15T16:00:29.702Z,30.79
2023-06-15T16:02:58.747Z,30.88
2023-06-15T16:05:29.379Z,31.04
2023-06-15T16:07:58.344Z,30.79
2023-06-15T16:10:28.356Z,30.74
2023-06-15T16:12:57.253Z,30.79
2023-06-15T16:15:26.493Z,30.88
2023-06-15T16:17:55.454Z,30.91
2023-06-15T16:20:25.683Z,31.13
2023-06-15T16:23:02.015Z,30.90
2023-06-15T16:25:30.884Z,31.06
2023-06-15T16:27:59.690Z,30.91
2023-06-15T16:30:28.566Z,30.89
2023-06-15T16:32:57.449Z,30.75
2023-06-15T16:35:27.575Z,30.90
2023-06-15T16:37:56.572Z,30.87
2023-06-15T16:40:26.903Z,30.97
2023-06-15T16:42:55.715Z,30.98
2023-06-15T16:45:25.569Z,30.94
2023-06-15T16:47:55.462Z,30.91
2023-06-15T16:50:24.885Z,30.74
2023-06-15T16:52:53.905Z,30.56
2023-06-15T16:55:22.900Z,30.68
2023-06-15T16:57:55.221Z,30.54
2023-06-15T17:00:25.614Z,30.76
2023-06-15T17:02:56.465Z,30.93
2023-06-15T17:05:26.040Z,30.77
2023-06-15T17:07:54.915Z,30.79
2023-06-15T17:10:25.496Z,30.47
2023-06-15T17:12:55.838Z,30.62
2023-06-15T17:15:24.596Z,30.67
2023-06-15T17:17:53.507Z,30.78
2023-06-15T17:20:22.390Z,30.71
2023-06-15T17:22:51.275Z,30.60
2023-06-15T17:25:20.227Z,30.77
2023-06-15T17:27:49.151Z,30.84
2023-06-15T17:30:20.122Z,30.77
2023-06-15T17:32:51.548Z,30.81
2023-06-15T17:35:24.974Z,30.98
2023-06-15T17:37:53.869Z,30.83
2023-06-15T17:40:22.996Z,30.78
2023-06-15T17:42:54.190Z,30.80
2023-06-15T17:45:28.337Z,30.35
2023-06-15T17:47:57.198Z,30.54
2023-06-15T17:50:28.482Z,30.44
2023-06-15T17:52:57.475Z,30.21
2023-06-15T17:55:28.144Z,30.07
2023-06-15T17:57:56.992Z,30.11
2023-06-15T18:00:27.228Z,30.08
2023-06-15T18:02:56.132Z,30.06
2023-06-15T18:05:25.098Z,29.98
2023-06-15T18:07:54.247Z,29.91
2023-06-15T18:10:24.321Z,29.93
2023-06-15T18:12:53.378Z,29.86
2023-06-15T18:15:24.982Z,29.70
2023-06-15T18:17:57.996Z,29.52
2023-06-15T18:20:27.217Z,29.34
2023-06-15T18:22:56.112Z,29.17
2023-06-15T18:25:25.123Z,29.15
2023-06-15T18:27:54.709Z,28.93
2023-06-15T18:30:24.628Z,28.34
2023-06-15T18:32:55.593Z,27.95
2023-06-15T18:35:26.625Z,27.58
2023-06-15T18:37:56.707Z,27.27
2023-06-15T18:40:25.720Z,26.94
2023-06-15T18:42:54.739Z,26.64
2023-06-15T18:45:23.881Z,26.36
2023-06-15T18:47:52.765Z,26.17
2023-06-15T18:50:23.403Z,25.90
2023-06-15T18:52:52.290Z,25.53
2023-06-15T18:55:21.359Z,25.15
2023-06-15T18:57:50.354Z,24.92
2023-06-15T19:00:19.577Z,24.58
2023-06-15T19:02:49.215Z,24.37
2023-06-15T19:05:18.644Z,24.16
2023-06-15T19:07:50.747Z,23.98
2023-06-15T19:10:20.047Z,23.85
2023-06-15T19:12:49.625Z,23.65
2023-06-15T19:15:18.853Z,23.47
2023-06-15T19:17:47.871Z,23.32
2023-06-15T19:20:17.126Z,23.15
2023-06-15T19:22:46.120Z,23.05
2023-06-15T19:25:16.558Z,22.85
2023-06-15T19:27:45.992Z,22.61
2023-06-15T19:30:16.949Z,22.43
2023-06-15T19:32:46.061Z,22.28
2023-06-15T19:35:15.800Z,22.20
2023-06-15T19:37:49.331Z,21.96
2023-06-15T19:40:30.360Z,21.83
2023-06-15T19:43:33.541Z,21.73
2023-06-15T19:46:02.696Z,21.59
2023-06-15T19:48:31.511Z,21.47
2023-06-15T19:51:04.064Z,21.38
2023-06-15T19:53:35.249Z,21.34
2023-06-15T19:56:09.064Z,21.31
2023-06-15T19:58:38.239Z,21.18
2023-06-15T20:01:10.165Z,21.13
2023-06-15T20:03:39.217Z,21.08
2023-06-15T20:06:11.827Z,20.94
2023-06-15T20:08:41.469Z,20.84
2023-06-15T20:11:16.469Z,20.78
2023-06-15T20:14:16.314Z,20.72
2023-06-15T20:16:45.437Z,20.66
2023-06-15T20:19:16.706Z,20.57
2023-06-15T20:21:45.923Z,20.51
2023-06-15T20:24:14.855Z,20.49
2023-06-15T20:26:46.062Z,20.51
2023-06-15T20:29:15.069Z,20.52
2023-06-15T20:31:44.632Z,20.43
2023-06-15T20:34:38.167Z,20.36
2023-06-15T20:37:15.183Z,20.28
2023-06-15T20:39:52.276Z,20.29
2023-06-15T20:42:24.664Z,20.19
2023-06-15T20:44:57.852Z,20.11
2023-06-15T20:47:39.779Z,20.10
2023-06-15T20:50:33.360Z,20.05
2023-06-15T20:53:06.718Z,20.03
2023-06-15T20:55:35.944Z,19.93
2023-06-15T20:58:07.592Z,19.92
2023-06-15T21:00:41.031Z,19.85
2023-06-15T21:03:10.060Z,19.81
2023-06-15T21:05:39.322Z,19.75
2023-06-15T21:08:08.766Z,19.72
2023-06-15T21:10:37.631Z,19.66
2023-06-15T21:13:14.771Z,19.62
2023-06-15T21:15:46.610Z,19.49
2023-06-15T21:18:18.459Z,19.47
2023-06-15T21:20:50.966Z,19.45
2023-06-15T21:23:20.313Z,19.42
2023-06-15T21:25:52.107Z,19.40
2023-06-15T21:28:24.695Z,19.30
2023-06-15T21:30:53.639Z,19.22
2023-06-15T21:33:22.839Z,19.16
2023-06-15T21:35:51.582Z,19.14
2023-06-15T21:38:22.053Z,19.14
2023-06-15T21:40:52.018Z,19.09
2023-06-15T21:43:23.536Z,18.98
2023-06-15T21:45:52.942Z,18.88
2023-06-15T21:48:21.775Z,18.77
2023-06-15T21:50:50.601Z,18.72
2023-06-15T21:53:19.497Z,18.74
2023-06-15T21:55:50.394Z,18.68
2023-06-15T21:58:19.660Z,18.67
2023-06-15T22:00:50.292Z,18.55
2023-06-15T22:03:19.201Z,18.44
2023-06-15T22:05:49.330Z,18.37
2023-06-15T22:08:18.253Z,18.31
2023-06-15T22:10:48.297Z,18.18
2023-06-15T22:13:22.064Z,18.24
2023-06-15T22:15:54.404Z,18.14
2023-06-15T22:18:28.513Z,18.08
2023-06-15T22:20:58.814Z,18.18
2023-06-15T22:23:29.122Z,18.18
2023-06-15T22:25:58.431Z,18.17
2023-06-15T22:28:28.650Z,18.19
2023-06-15T22:30:59.905Z,18.12
2023-06-15T22:33:31.631Z,18.12
2023-06-15T22:36:00.549Z,18.14
2023-06-15T22:38:29.360Z,18.10
2023-06-15T22:40:58.301Z,18.05
2023-06-15T22:43:29.107Z,17.99
2023-06-15T22:46:02.340Z,17.92
2023-06-15T22:48:32.262Z,17.82
2023-06-15T22:51:01.068Z,17.79
2023-06-15T22:53:29.898Z,17.77
2023-06-15T22:55:58.750Z,17.73
2023-06-15T22:58:27.507Z,17.69
2023-06-15T23:01:00.358Z,17.67
2023-06-15T23:03:30.149Z,17.63
2023-06-15T23:06:00.277Z,17.55
2023-06-15T23:08:31.961Z,17.48
2023-06-15T23:11:02.898Z,17.37
2023-06-15T23:13:32.476Z,17.26
2023-06-15T23:16:02.863Z,17.23
2023-06-15T23:18:33.036Z,17.14
2023-06-15T23:21:02.226Z,17.07
2023-06-15T23:23:38.652Z,17.04
2023-06-15T23:26:09.927Z,16.97
2023-06-15T23:28:42.122Z,16.97
2023-06-15T23:31:12.307Z,16.90
2023-06-15T23:33:41.063Z,16.93
2023-06-15T23:36:15.247Z,16.90
2023-06-15T23:38:44.216Z,16.93
2023-06-15T23:41:13.033Z,16.91
2023-06-15T23:43:41.827Z,16.86
2023-06-15T23:46:12.027Z,16.87
2023-06-15T23:48:40.796Z,16.75
2023-06-15T23:51:11.296Z,16.72
2023-06-15T23:53:40.732Z,16.60
2023-06-15T23:56:11.095Z,16.49
2023-06-15T23:58:40.570Z,16.41
